Time,TemperatureF,DewpointF,PressureIn,WindDirection,WindDirectionDegrees,WindSpeedMPH,WindSpeedGustMPH,Humidity,HourlyPrecipIn,Conditions,Clouds,dailyrainin,SoftwareType,DateUTC
2013-01-28 00:10:00,34.3,32.0,30.19,NW,325,0.0,0.0,90,0.00,,,0.00,weatherlink.com 1.10,2013-01-28 08:10:00,
2013-01-28 00:25:00,34.6,31.0,30.18,NNW,348,0.0,3.0,88,0.00,,,0.00,weatherlink.com 1.10,2013-01-28 08:25:00,
2013-01-28 00:40:00,34.8,32.0,30.18,NNW,348,0.0,1.0,89,0.00,,,0.00,weatherlink.com 1.10,2013-01-28 08:40:00,
2013-01-28 00:55:00,35.7,33.0,30.19,NW,305,1.0,5.0,88,0.00,,,0.00,weatherlink.com 1.10,2013-01-28 08:55:00,
2013-01-28 01:10:00,36.9,33.0,30.19,NW,313,2.0,3.0,85,0.00,,,0.00,weatherlink.com 1.10,2013-01-28 09:10:00,
2013-01-28 01:25:00,37.3,33.0,30.18,NW,313,0.0,2.0,84,0.00,,,0.00,weatherlink.com 1.10,2013-01-28 09:25:00,
2013-01-28 01:40:00,37.4,33.0,30.18,NW,313,0.0,2.0,84,0.00,,,0.00,weatherlink.com 1.10,2013-01-28 09:40:00,
2013-01-28 01:55:00,36.9,33.0,30.19,SW,219,1.0,3.0,84,0.00,,,0.00,weatherlink.com 1.10,2013-01-28 09:55:00,
2013-01-28 02:10:00,39.9,34.0,30.19,NNW,345,0.0,4.0,78,0.00,,,0.00,weatherlink.com 1.10,2013-01-28 10:10:00,
2013-01-28 02:25:00,40.2,34.0,30.19,NW,325,2.0,4.0,78,0.00,,,0.00,weatherlink.com 1.10,2013-01-28 10:25:00,
2013-01-28 02:40:00,40.7,34.0,30.19,NNW,340,2.0,3.0,76,0.00,,,0.00,weatherlink.com 1.10,2013-01-28 10:40:00,
2013-01-28 02:55:00,38.0,32.0,30.19,NNW,333,0.0,3.0,80,0.00,,,0.00,weatherlink.com 1.10,2013-01-28 10:55:00,
2013-01-28 03:10:00,37.9,33.0,30.19,NNW,333,1.0,2.0,83,0.00,,,0.00,weatherlink.com 1.10,2013-01-28 11:10:00,
2013-01-28 03:25:00,38.5,33.0,30.19,NNW,333,1.0,2.0,82,0.00,,,0.00,weatherlink.com 1.10,2013-01-28 11:25:00,
2013-01-28 03:40:00,39.3,34.0,30.19,NNW,339,0.0,5.0,82,0.00,,,0.00,weatherlink.com 1.10,2013-01-28 11:40:00,
2013-01-28 03:55:00,40.0,34.0,30.18,North,350,0.0,3.0,80,0.00,,,0.00,weatherlink.com 1.10,2013-01-28 11:55:00,
2013-01-28 04:10:00,40.1,34.0,30.19,North,350,0.0,2.0,80,0.00,,,0.00,weatherlink.com 1.10,2013-01-28 12:10:00,
2013-01-28 04:25:00,39.4,34.0,30.19,North,350,0.0,1.0,81,0.00,,,0.00,weatherlink.com 1.10,2013-01-28 12:25:00,
2013-01-28 04:40:00,38.7,34.0,30.19,North,350,0.0,0.0,83,0.00,,,0.00,weatherlink.com 1.10,2013-01-28 12:40:00,
2013-01-28 04:55:00,37.2,33.0,30.18,North,350,0.0,0.0,84,0.00,,,0.00,weatherlink.com 1.10,2013-01-28 12:55:00,
2013-01-28 05:10:00,36.1,32.0,30.18,North,350,0.0,1.0,85,0.00,,,0.00,weatherlink.com 1.10,2013-01-28 13:10:00,
2013-01-28 05:25:00,35.4,32.0,30.17,North,350,0.0,0.0,88,0.00,,,0.00,weatherlink.com 1.10,2013-01-28 13:25:00,
2013-01-28 05:40:00,35.3,33.0,30.17,North,350,0.0,0.0,90,0.00,,,0.00,weatherlink.com 1.10,2013-01-28 13:40:00,
2013-01-28 05:55:00,35.3,33.0,30.18,NNW,329,3.0,3.0,90,0.00,,,0.00,weatherlink.com 1.10,2013-01-28 13:55:00,
2013-01-28 06:10:00,37.6,33.0,30.17,NNW,333,2.0,6.0,82,0.00,,,0.00,weatherlink.com 1.10,2013-01-28 14:10:00,
2013-01-28 06:25:00,34.1,31.0,30.18,North,360,0.0,3.0,87,0.00,,,0.00,weatherlink.com 1.10,2013-01-28 14:25:00,
2013-01-28 06:41:00,34.1,32.0,30.18,North,360,0.0,0.0,90,0.00,,,0.00,weatherlink.com 1.10,2013-01-28 14:41:00,
2013-01-28 06:56:00,35.1,33.0,30.19,North,360,0.0,1.0,92,0.00,,,0.00,weatherlink.com 1.10,2013-01-28 14:56:00,
2013-01-28 07:11:00,35.7,34.0,30.20,North,360,1.0,1.0,92,0.00,,,0.00,weatherlink.com 1.10,2013-01-28 15:11:00,
2013-01-28 07:26:00,35.9,33.0,30.20,North,360,0.0,2.0,89,0.00,,,0.00,weatherlink.com 1.10,2013-01-28 15:26:00,
2013-01-28 07:41:00,35.5,33.0,30.20,North,360,0.0,2.0,90,0.00,,,0.00,weatherlink.com 1.10,2013-01-28 15:41:00,
2013-01-28 07:56:00,36.4,34.0,30.21,North,360,0.0,0.0,91,0.00,,,0.00,weatherlink.com 1.10,2013-01-28 15:56:00,
2013-01-28 08:11:00,37.7,34.0,30.22,North,360,0.0,3.0,87,0.00,,,0.00,weatherlink.com 1.10,2013-01-28 16:11:00,
2013-01-28 08:26:00,38.6,35.0,30.22,North,5,0.0,5.0,87,0.00,,,0.00,weatherlink.com 1.10,2013-01-28 16:26:00,
2013-01-28 08:41:00,40.5,37.0,30.22,North,5,1.0,3.0,87,0.00,,,0.00,weatherlink.com 1.10,2013-01-28 16:41:00,
2013-01-28 08:56:00,43.7,39.0,30.21,WNW,297,3.0,5.0,83,0.00,,,0.00,weatherlink.com 1.10,2013-01-28 16:56:00,
2013-01-28 09:11:00,47.5,40.0,30.21,NNW,327,3.0,7.0,75,0.00,,,0.00,weatherlink.com 1.10,2013-01-28 17:11:00,
2013-01-28 09:26:00,49.4,40.0,30.22,NNW,347,8.0,8.0,69,0.00,,,0.00,weatherlink.com 1.10,2013-01-28 17:26:00,
2013-01-28 09:41:00,49.8,39.0,30.22,NW,319,4.0,10.0,66,0.00,,,0.00,weatherlink.com 1.10,2013-01-28 17:41:00,
2013-01-28 09:56:00,51.0,40.0,30.23,NNW,336,6.0,8.0,65,0.00,,,0.00,weatherlink.com 1.10,2013-01-28 17:56:00,
2013-01-28 10:11:00,51.8,39.0,30.24,NNW,346,7.0,8.0,61,0.00,,,0.00,weatherlink.com 1.10,2013-01-28 18:11:00,
2013-01-28 10:26:00,52.5,38.0,30.24,West,280,6.0,9.0,58,0.00,,,0.00,weatherlink.com 1.10,2013-01-28 18:26:00,
2013-01-28 10:41:00,53.3,39.0,30.25,NW,313,6.0,10.0,58,0.00,,,0.00,weatherlink.com 1.10,2013-01-28 18:41:00,
2013-01-28 10:56:00,53.6,39.0,30.24,NW,309,7.0,10.0,58,0.00,,,0.00,weatherlink.com 1.10,2013-01-28 18:56:00,
2013-01-28 11:11:00,54.3,39.0,30.25,NW,308,6.0,12.0,57,0.00,,,0.00,weatherlink.com 1.10,2013-01-28 19:11:00,
2013-01-28 11:26:00,54.8,38.0,30.24,NNW,338,11.0,15.0,54,0.00,,,0.00,weatherlink.com 1.10,2013-01-28 19:26:00,
2013-01-28 11:41:00,55.0,39.0,30.25,North,355,7.0,11.0,55,0.00,,,0.00,weatherlink.com 1.10,2013-01-28 19:41:00,
2013-01-28 11:56:00,55.6,38.0,30.24,NW,309,7.0,14.0,52,0.00,,,0.00,weatherlink.com 1.10,2013-01-28 19:56:00,
2013-01-28 12:11:00,55.9,38.0,30.24,NNW,333,11.0,14.0,51,0.00,,,0.00,weatherlink.com 1.10,2013-01-28 20:11:00,
2013-01-28 12:26:00,56.3,38.0,30.23,NW,321,6.0,11.0,50,0.00,,,0.00,weatherlink.com 1.10,2013-01-28 20:26:00,
2013-01-28 12:41:00,56.7,38.0,30.23,North,351,6.0,16.0,50,0.00,,,0.00,weatherlink.com 1.10,2013-01-28 20:41:00,
2013-01-28 12:56:00,57.0,37.0,30.23,NW,323,4.0,12.0,47,0.00,,,0.00,weatherlink.com 1.10,2013-01-28 20:56:00,
2013-01-28 13:12:00,57.2,37.0,30.22,NW,315,9.0,14.0,48,0.00,,,0.00,weatherlink.com 1.10,2013-01-28 21:12:00,
2013-01-28 13:27:00,57.2,38.0,30.22,NNW,327,8.0,13.0,49,0.00,,,0.00,weatherlink.com 1.10,2013-01-28 21:27:00,
2013-01-28 13:42:00,57.2,39.0,30.22,NW,321,8.0,13.0,50,0.00,,,0.00,weatherlink.com 1.10,2013-01-28 21:42:00,
2013-01-28 13:57:00,57.1,38.0,30.22,North,355,9.0,14.0,50,0.00,,,0.00,weatherlink.com 1.10,2013-01-28 21:57:00,
2013-01-28 14:12:00,57.3,39.0,30.21,WNW,303,4.0,12.0,51,0.00,,,0.00,weatherlink.com 1.10,2013-01-28 22:12:00,
2013-01-28 14:27:00,57.2,39.0,30.21,NW,324,6.0,14.0,52,0.00,,,0.00,weatherlink.com 1.10,2013-01-28 22:27:00,
2013-01-28 14:42:00,56.5,39.0,30.22,WNW,288,6.0,14.0,53,0.00,,,0.00,weatherlink.com 1.10,2013-01-28 22:42:00,
2013-01-28 14:57:00,56.1,38.0,30.21,WNW,292,9.0,14.0,52,0.00,,,0.00,weatherlink.com 1.10,2013-01-28 22:57:00,
2013-01-28 15:12:00,55.8,39.0,30.22,WNW,299,7.0,12.0,54,0.00,,,0.00,weatherlink.com 1.10,2013-01-28 23:12:00,
2013-01-28 15:27:00,55.7,39.0,30.22,NW,317,8.0,13.0,53,0.00,,,0.00,weatherlink.com 1.10,2013-01-28 23:27:00,
2013-01-28 15:42:00,55.5,38.0,30.22,NNW,332,8.0,13.0,53,0.00,,,0.00,weatherlink.com 1.10,2013-01-28 23:42:00,
2013-01-28 15:57:00,54.9,38.0,30.23,NNW,342,8.0,13.0,54,0.00,,,0.00,weatherlink.com 1.10,2013-01-28 23:57:00,
2013-01-28 16:12:00,54.3,38.0,30.23,North,350,8.0,12.0,55,0.00,,,0.00,weatherlink.com 1.10,2013-01-29 00:12:00,
2013-01-28 16:27:00,54.0,38.0,30.23,NW,324,9.0,11.0,55,0.00,,,0.00,weatherlink.com 1.10,2013-01-29 00:27:00,
2013-01-28 16:57:00,53.0,38.0,30.24,NNW,342,5.0,12.0,57,0.00,,,0.00,weatherlink.com 1.10,2013-01-29 00:57:00,
2013-01-28 17:12:00,52.4,38.0,30.24,WNW,286,7.0,10.0,59,0.00,,,0.00,weatherlink.com 1.10,2013-01-29 01:12:00,
2013-01-28 17:27:00,51.8,38.0,30.24,NW,313,4.0,9.0,59,0.00,,,0.00,weatherlink.com 1.10,2013-01-29 01:27:00,
2013-01-28 17:42:00,51.5,38.0,30.25,WSW,254,1.0,6.0,61,0.00,,,0.00,weatherlink.com 1.10,2013-01-29 01:42:00,
2013-01-28 17:57:00,50.0,38.0,30.25,SW,222,0.0,2.0,64,0.00,,,0.00,weatherlink.com 1.10,2013-01-29 01:57:00,
2013-01-28 18:12:00,48.5,38.0,30.25,West,263,0.0,3.0,68,0.00,,,0.00,weatherlink.com 1.10,2013-01-29 02:12:00,
2013-01-28 18:27:00,47.6,38.0,30.26,West,277,0.0,3.0,69,0.00,,,0.00,weatherlink.com 1.10,2013-01-29 02:27:00,
2013-01-28 18:42:00,46.5,38.0,30.26,West,277,0.0,2.0,71,0.00,,,0.00,weatherlink.com 1.10,2013-01-29 02:42:00,
2013-01-28 18:57:00,45.4,38.0,30.27,West,277,0.0,1.0,75,0.00,,,0.00,weatherlink.com 1.10,2013-01-29 02:57:00,
2013-01-28 19:27:00,43.8,37.0,30.28,West,277,0.0,1.0,77,0.00,,,0.00,weatherlink.com 1.10,2013-01-29 03:27:00,
2013-01-28 19:42:00,44.0,37.0,30.28,NW,306,0.0,3.0,76,0.00,,,0.00,weatherlink.com 1.10,2013-01-29 03:42:00,
2013-01-28 19:57:00,43.6,37.0,30.28,NW,324,3.0,5.0,77,0.00,,,0.00,weatherlink.com 1.10,2013-01-29 03:57:00,
2013-01-28 20:12:00,43.9,37.0,30.29,NW,325,0.0,1.0,77,0.00,,,0.00,weatherlink.com 1.10,2013-01-29 04:12:00,
2013-01-28 20:27:00,43.8,37.0,30.29,NW,325,0.0,1.0,78,0.00,,,0.00,weatherlink.com 1.10,2013-01-29 04:27:00,
2013-01-28 20:42:00,43.6,37.0,30.29,NNW,327,1.0,6.0,78,0.00,,,0.00,weatherlink.com 1.10,2013-01-29 04:42:00,
2013-01-28 20:57:00,45.4,38.0,30.29,NW,317,6.0,9.0,75,0.00,,,0.00,weatherlink.com 1.10,2013-01-29 04:57:00,
2013-01-28 21:12:00,47.0,38.0,30.29,NNW,332,5.0,9.0,71,0.00,,,0.00,weatherlink.com 1.10,2013-01-29 05:12:00,
2013-01-28 21:27:00,47.9,38.0,30.28,NNW,332,5.0,13.0,69,0.00,,,0.00,weatherlink.com 1.10,2013-01-29 05:27:00,
2013-01-28 21:42:00,47.4,38.0,30.28,NW,307,4.0,6.0,70,0.00,,,0.00,weatherlink.com 1.10,2013-01-29 05:42:00,
2013-01-28 21:57:00,47.6,38.0,30.28,WNW,294,2.0,5.0,69,0.00,,,0.00,weatherlink.com 1.10,2013-01-29 05:57:00,
2013-01-28 22:12:00,46.5,38.0,30.28,WNW,290,0.0,1.0,71,0.00,,,0.00,weatherlink.com 1.10,2013-01-29 06:12:00,
2013-01-28 22:27:00,44.0,37.0,30.28,WNW,290,0.0,1.0,76,0.00,,,0.00,weatherlink.com 1.10,2013-01-29 06:27:00,
2013-01-28 22:42:00,43.3,37.0,30.28,SW,233,1.0,4.0,79,0.00,,,0.00,weatherlink.com 1.10,2013-01-29 06:42:00,
2013-01-28 22:57:00,43.2,37.0,30.28,SSW,206,1.0,3.0,79,0.00,,,0.00,weatherlink.com 1.10,2013-01-29 06:57:00,
2013-01-28 23:12:00,42.3,37.0,30.29,NW,317,1.0,4.0,80,0.00,,,0.00,weatherlink.com 1.10,2013-01-29 07:12:00,
2013-01-28 23:27:00,41.3,37.0,30.29,NW,317,0.0,2.0,83,0.00,,,0.00,weatherlink.com 1.10,2013-01-29 07:27:00,
2013-01-28 23:42:00,40.6,36.0,30.29,NW,317,0.0,2.0,83,0.00,,,0.00,weatherlink.com 1.10,2013-01-29 07:42:00,
2013-01-28 23:57:00,40.2,36.0,30.30,NW,317,0.0,1.0,85,0.00,,,0.00,weatherlink.com 1.10,2013-01-29 07:57:00,